sensor_id;sensor_type;location;lat;lon;timestamp;pressure;altitude;pressure_sealevel;temperature;humidity
56176;BME280;63065;51.082;17.016;2023-02-19T00:00:08;100077.03;;;11.15;47.53
56176;BME280;63065;51.082;17.016;2023-02-19T00:02:37;100075.28;;;10.99;46.84
56176;BME280;63065;51.082;17.016;2023-02-19T00:04:58;100072.37;;;11.03;47.80
56176;BME280;63065;51.082;17.016;2023-02-19T00:07:23;100074.20;;;11.16;46.84
56176;BME280;63065;51.082;17.016;2023-02-19T00:09:49;100078.55;;;11.24;46.83
56176;BME280;63065;51.082;17.016;2023-02-19T00:12:15;100077.34;;;10.95;46.71
56176;BME280;63065;51.082;17.016;2023-02-19T00:14:41;100076.56;;;11.03;47.19
56176;BME280;63065;51.082;17.016;2023-02-19T00:17:06;100077.82;;;11.04;46.43
56176;BME280;63065;51.082;17.016;2023-02-19T00:19:31;100078.75;;;11.26;46.77
56176;BME280;63065;51.082;17.016;2023-02-19T00:21:56;100075.50;;;11.01;47.58
56176;BME280;63065;51.082;17.016;2023-02-19T00:24:22;100076.99;;;11.13;46.98
56176;BME280;63065;51.082;17.016;2023-02-19T00:26:48;100074.52;;;11.27;46.39
56176;BME280;63065;51.082;17.016;2023-02-19T00:29:15;100069.42;;;11.45;46.73
56176;BME280;63065;51.082;17.016;2023-02-19T00:31:40;100066.16;;;11.31;47.32
56176;BME280;63065;51.082;17.016;2023-02-19T00:34:05;100058.94;;;11.12;46.62
56176;BME280;63065;51.082;17.016;2023-02-19T00:36:33;100060.11;;;11.27;47.06
56176;BME280;63065;51.082;17.016;2023-02-19T00:38:57;100057.78;;;11.34;46.43
56176;BME280;63065;51.082;17.016;2023-02-19T00:41:23;100057.92;;;11.29;46.36
56176;BME280;63065;51.082;17.016;2023-02-19T00:43:51;100058.88;;;10.73;47.28
56176;BME280;63065;51.082;17.016;2023-02-19T00:46:14;100059.78;;;10.99;47.63
56176;BME280;63065;51.082;17.016;2023-02-19T00:48:39;100057.35;;;11.01;47.52
56176;BME280;63065;51.082;17.016;2023-02-19T00:51:05;100056.97;;;10.91;47.13
56176;BME280;63065;51.082;17.016;2023-02-19T00:53:31;100051.60;;;11.25;46.95
56176;BME280;63065;51.082;17.016;2023-02-19T00:55:57;100045.73;;;10.69;47.73
56176;BME280;63065;51.082;17.016;2023-02-19T00:58:22;100048.04;;;10.75;48.31
56176;BME280;63065;51.082;17.016;2023-02-19T01:00:48;100042.95;;;10.47;48.33
56176;BME280;63065;51.082;17.016;2023-02-19T01:03:14;100038.44;;;10.27;48.10
56176;BME280;63065;51.082;17.016;2023-02-19T01:05:40;100029.76;;;10.60;48.25
56176;BME280;63065;51.082;17.016;2023-02-19T01:08:05;100028.70;;;10.85;48.42
56176;BME280;63065;51.082;17.016;2023-02-19T01:10:31;100027.24;;;10.68;48.56
56176;BME280;63065;51.082;17.016;2023-02-19T01:12:57;100022.01;;;10.46;48.54
56176;BME280;63065;51.082;17.016;2023-02-19T01:15:27;100021.91;;;10.95;47.79
56176;BME280;63065;51.082;17.016;2023-02-19T01:17:48;100020.85;;;10.51;47.47
56176;BME280;63065;51.082;17.016;2023-02-19T01:20:14;100021.38;;;10.82;47.80
56176;BME280;63065;51.082;17.016;2023-02-19T01:22:39;100022.54;;;10.96;48.40
56176;BME280;63065;51.082;17.016;2023-02-19T01:25:05;100031.56;;;10.27;48.05
56176;BME280;63065;51.082;17.016;2023-02-19T01:27:30;100025.57;;;10.02;48.39
56176;BME280;63065;51.082;17.016;2023-02-19T01:29:56;100022.72;;;9.95;49.68
56176;BME280;63065;51.082;17.016;2023-02-19T01:32:22;100021.40;;;9.95;49.65
56176;BME280;63065;51.082;17.016;2023-02-19T01:34:47;100018.14;;;10.01;48.66
56176;BME280;63065;51.082;17.016;2023-02-19T01:37:12;100017.05;;;9.99;49.05
56176;BME280;63065;51.082;17.016;2023-02-19T01:39:38;100011.69;;;10.07;48.97
56176;BME280;63065;51.082;17.016;2023-02-19T01:42:04;100015.06;;;10.20;49.65
56176;BME280;63065;51.082;17.016;2023-02-19T01:46:55;100009.99;;;10.42;48.29
56176;BME280;63065;51.082;17.016;2023-02-19T01:49:25;100011.92;;;10.38;48.33
56176;BME280;63065;51.082;17.016;2023-02-19T01:51:52;100006.53;;;10.50;48.86
56176;BME280;63065;51.082;17.016;2023-02-19T01:54:15;99995.29;;;10.46;48.46
56176;BME280;63065;51.082;17.016;2023-02-19T01:56:40;99990.10;;;10.61;48.62
56176;BME280;63065;51.082;17.016;2023-02-19T01:59:05;99979.88;;;10.59;47.58
56176;BME280;63065;51.082;17.016;2023-02-19T02:01:30;99979.71;;;11.01;47.75
56176;BME280;63065;51.082;17.016;2023-02-19T02:03:55;99971.81;;;10.84;47.28
56176;BME280;63065;51.082;17.016;2023-02-19T02:06:23;99966.91;;;10.84;47.85
56176;BME280;63065;51.082;17.016;2023-02-19T02:08:47;99963.34;;;11.21;47.60
56176;BME280;63065;51.082;17.016;2023-02-19T02:11:11;99962.78;;;11.11;47.00
56176;BME280;63065;51.082;17.016;2023-02-19T02:13:38;99960.73;;;11.11;47.00
56176;BME280;63065;51.082;17.016;2023-02-19T02:16:15;99963.24;;;11.18;47.41
56176;BME280;63065;51.082;17.016;2023-02-19T02:18:36;99953.19;;;11.09;47.50
56176;BME280;63065;51.082;17.016;2023-02-19T02:21:07;99947.06;;;11.19;47.20
56176;BME280;63065;51.082;17.016;2023-02-19T02:23:28;99949.82;;;11.37;47.10
56176;BME280;63065;51.082;17.016;2023-02-19T02:25:57;99947.62;;;11.02;47.11
56176;BME280;63065;51.082;17.016;2023-02-19T02:28:22;99942.16;;;11.24;47.05
56176;BME280;63065;51.082;17.016;2023-02-19T02:30:38;99940.46;;;10.80;48.05
56176;BME280;63065;51.082;17.016;2023-02-19T02:33:06;99936.50;;;10.88;47.79
56176;BME280;63065;51.082;17.016;2023-02-19T02:35:29;99937.95;;;11.21;47.44
56176;BME280;63065;51.082;17.016;2023-02-19T02:37:54;99940.51;;;11.37;47.03
56176;BME280;63065;51.082;17.016;2023-02-19T02:40:18;99940.28;;;11.18;47.67
56176;BME280;63065;51.082;17.016;2023-02-19T02:42:43;99943.12;;;11.32;46.48
56176;BME280;63065;51.082;17.016;2023-02-19T02:47:36;99934.42;;;11.07;47.50
56176;BME280;63065;51.082;17.016;2023-02-19T02:49:58;99936.07;;;11.22;47.77
56176;BME280;63065;51.082;17.016;2023-02-19T02:52:23;99931.87;;;11.40;47.45
56176;BME280;63065;51.082;17.016;2023-02-19T02:54:49;99928.41;;;11.42;47.31
56176;BME280;63065;51.082;17.016;2023-02-19T02:57:15;99923.74;;;11.47;46.95
56176;BME280;63065;51.082;17.016;2023-02-19T02:59:40;99924.61;;;11.34;47.37
56176;BME280;63065;51.082;17.016;2023-02-19T03:02:08;99919.55;;;11.40;46.89
56176;BME280;63065;51.082;17.016;2023-02-19T03:04:36;99923.74;;;11.38;47.41
56176;BME280;63065;51.082;17.016;2023-02-19T03:06:59;99922.18;;;11.41;46.41
56176;BME280;63065;51.082;17.016;2023-02-19T03:09:25;99920.10;;;11.27;46.93
56176;BME280;63065;51.082;17.016;2023-02-19T03:11:49;99923.51;;;11.17;47.36
56176;BME280;63065;51.082;17.016;2023-02-19T03:14:15;99921.37;;;11.00;47.54
56176;BME280;63065;51.082;17.016;2023-02-19T03:16:43;99919.44;;;11.13;47.76
56176;BME280;63065;51.082;17.016;2023-02-19T03:19:05;99923.01;;;11.14;47.57
56176;BME280;63065;51.082;17.016;2023-02-19T03:21:32;99919.14;;;10.81;47.04
56176;BME280;63065;51.082;17.016;2023-02-19T03:23:56;99916.63;;;11.11;47.91
56176;BME280;63065;51.082;17.016;2023-02-19T03:26:20;99915.17;;;11.18;47.63
56176;BME280;63065;51.082;17.016;2023-02-19T03:28:47;99911.34;;;11.26;47.03
56176;BME280;63065;51.082;17.016;2023-02-19T03:31:14;99906.26;;;11.22;46.73
56176;BME280;63065;51.082;17.016;2023-02-19T03:33:37;99900.07;;;11.15;47.19
56176;BME280;63065;51.082;17.016;2023-02-19T03:36:04;99892.82;;;11.24;47.50
56176;BME280;63065;51.082;17.016;2023-02-19T03:38:31;99882.13;;;11.31;47.53
56176;BME280;63065;51.082;17.016;2023-02-19T03:40:56;99872.53;;;11.51;46.79
56176;BME280;63065;51.082;17.016;2023-02-19T03:43:23;99876.75;;;11.35;46.79
56176;BME280;63065;51.082;17.016;2023-02-19T03:45:48;99874.73;;;11.33;47.33
56176;BME280;63065;51.082;17.016;2023-02-19T03:48:18;99863.69;;;11.11;47.02
56176;BME280;63065;51.082;17.016;2023-02-19T03:50:43;99868.79;;;11.44;46.93
56176;BME280;63065;51.082;17.016;2023-02-19T03:53:04;99867.42;;;11.39;47.54
56176;BME280;63065;51.082;17.016;2023-02-19T03:55:30;99873.70;;;11.41;47.17
56176;BME280;63065;51.082;17.016;2023-02-19T03:57:54;99875.55;;;11.30;46.96
56176;BME280;63065;51.082;17.016;2023-02-19T04:00:26;99882.46;;;11.08;47.91
56176;BME280;63065;51.082;17.016;2023-02-19T04:02:46;99881.42;;;11.02;47.92
56176;BME280;63065;51.082;17.016;2023-02-19T04:05:10;99881.75;;;10.94;47.33
56176;BME280;63065;51.082;17.016;2023-02-19T04:07:34;99877.45;;;10.74;47.69
56176;BME280;63065;51.082;17.016;2023-02-19T04:09:58;99873.95;;;10.59;48.08
56176;BME280;63065;51.082;17.016;2023-02-19T04:12:23;99873.03;;;10.60;47.73
56176;BME280;63065;51.082;17.016;2023-02-19T04:14:58;99874.39;;;11.08;48.50
56176;BME280;63065;51.082;17.016;2023-02-19T04:17:19;99872.96;;;10.95;48.08
56176;BME280;63065;51.082;17.016;2023-02-19T04:19:41;99877.75;;;10.97;48.03
56176;BME280;63065;51.082;17.016;2023-02-19T04:22:07;99876.40;;;10.97;48.47
56176;BME280;63065;51.082;17.016;2023-02-19T04:24:35;99876.63;;;10.67;48.12
56176;BME280;63065;51.082;17.016;2023-02-19T04:26:57;99875.79;;;10.85;48.49
56176;BME280;63065;51.082;17.016;2023-02-19T04:29:22;99871.20;;;10.94;48.31
56176;BME280;63065;51.082;17.016;2023-02-19T04:31:48;99872.93;;;10.77;48.10
56176;BME280;63065;51.082;17.016;2023-02-19T04:34:14;99865.17;;;10.71;48.09
56176;BME280;63065;51.082;17.016;2023-02-19T04:36:38;99876.16;;;11.05;47.94
56176;BME280;63065;51.082;17.016;2023-02-19T04:39:03;99875.08;;;10.48;48.25
56176;BME280;63065;51.082;17.016;2023-02-19T04:41:28;99874.68;;;10.09;49.19
56176;BME280;63065;51.082;17.016;2023-02-19T04:43:54;99870.86;;;10.36;48.73
56176;BME280;63065;51.082;17.016;2023-02-19T04:46:20;99864.58;;;10.22;48.81
56176;BME280;63065;51.082;17.016;2023-02-19T04:48:45;99866.72;;;10.37;49.05
56176;BME280;63065;51.082;17.016;2023-02-19T04:51:11;99864.13;;;10.28;48.60
56176;BME280;63065;51.082;17.016;2023-02-19T04:53:36;99858.70;;;10.55;48.64
56176;BME280;63065;51.082;17.016;2023-02-19T04:56:06;99860.86;;;10.90;48.45
56176;BME280;63065;51.082;17.016;2023-02-19T04:58:27;99853.25;;;10.32;48.95
56176;BME280;63065;51.082;17.016;2023-02-19T05:00:52;99853.19;;;10.54;48.63
56176;BME280;63065;51.082;17.016;2023-02-19T05:03:22;99850.25;;;11.03;47.36
56176;BME280;63065;51.082;17.016;2023-02-19T05:05:42;99847.95;;;10.99;47.60
56176;BME280;63065;51.082;17.016;2023-02-19T05:08:08;99848.07;;;11.11;47.74
56176;BME280;63065;51.082;17.016;2023-02-19T05:10:34;99845.28;;;10.92;47.81
56176;BME280;63065;51.082;17.016;2023-02-19T05:13:00;99842.41;;;10.70;47.55
56176;BME280;63065;51.082;17.016;2023-02-19T05:15:25;99842.28;;;11.49;47.03
56176;BME280;63065;51.082;17.016;2023-02-19T05:17:51;99843.16;;;11.01;46.97
56176;BME280;63065;51.082;17.016;2023-02-19T05:20:17;99839.28;;;11.07;47.27
56176;BME280;63065;51.082;17.016;2023-02-19T05:22:42;99841.32;;;11.11;47.29
56176;BME280;63065;51.082;17.016;2023-02-19T05:25:07;99846.29;;;10.96;46.96
56176;BME280;63065;51.082;17.016;2023-02-19T05:27:32;99843.48;;;10.67;47.86
56176;BME280;63065;51.082;17.016;2023-02-19T05:29:58;99844.01;;;10.59;47.66
56176;BME280;63065;51.082;17.016;2023-02-19T05:32:24;99841.11;;;10.59;47.60
56176;BME280;63065;51.082;17.016;2023-02-19T05:34:50;99838.53;;;10.81;47.52
56176;BME280;63065;51.082;17.016;2023-02-19T05:37:15;99830.22;;;10.78;47.93
56176;BME280;63065;51.082;17.016;2023-02-19T05:39:41;99831.00;;;9.97;48.74
56176;BME280;63065;51.082;17.016;2023-02-19T05:42:06;99827.53;;;10.18;48.57
56176;BME280;63065;51.082;17.016;2023-02-19T05:44:31;99832.31;;;10.55;49.10
56176;BME280;63065;51.082;17.016;2023-02-19T05:46:57;99834.09;;;10.47;48.78
56176;BME280;63065;51.082;17.016;2023-02-19T05:49:23;99834.92;;;10.59;48.43
56176;BME280;63065;51.082;17.016;2023-02-19T05:51:50;99835.21;;;9.91;48.44
56176;BME280;63065;51.082;17.016;2023-02-19T05:54:14;99835.28;;;10.64;48.35
56176;BME280;63065;51.082;17.016;2023-02-19T05:56:40;99828.27;;;10.20;49.18
56176;BME280;63065;51.082;17.016;2023-02-19T05:59:07;99826.89;;;10.27;49.49
56176;BME280;63065;51.082;17.016;2023-02-19T06:01:29;99826.16;;;10.77;48.75
56176;BME280;63065;51.082;17.016;2023-02-19T06:03:55;99825.07;;;10.67;48.25
56176;BME280;63065;51.082;17.016;2023-02-19T06:06:20;99829.14;;;10.50;48.29
56176;BME280;63065;51.082;17.016;2023-02-19T06:08:47;99833.61;;;10.22;48.41
56176;BME280;63065;51.082;17.016;2023-02-19T06:11:11;99833.56;;;10.34;48.10
56176;BME280;63065;51.082;17.016;2023-02-19T06:13:36;99828.84;;;10.20;49.05
56176;BME280;63065;51.082;17.016;2023-02-19T06:16:03;99830.12;;;10.36;48.83
56176;BME280;63065;51.082;17.016;2023-02-19T06:18:27;99835.99;;;10.13;48.92
56176;BME280;63065;51.082;17.016;2023-02-19T06:20:53;99836.56;;;10.14;48.27
56176;BME280;63065;51.082;17.016;2023-02-19T06:23:18;99839.28;;;10.31;48.86
56176;BME280;63065;51.082;17.016;2023-02-19T06:25:43;99843.01;;;9.91;48.71
56176;BME280;63065;51.082;17.016;2023-02-19T06:28:08;99847.57;;;9.87;49.77
56176;BME280;63065;51.082;17.016;2023-02-19T06:30:33;99849.48;;;9.69;49.75
56176;BME280;63065;51.082;17.016;2023-02-19T06:32:59;99850.34;;;9.99;49.72
56176;BME280;63065;51.082;17.016;2023-02-19T06:35:24;99854.55;;;10.26;49.16
56176;BME280;63065;51.082;17.016;2023-02-19T06:37:49;99855.30;;;10.09;48.48
56176;BME280;63065;51.082;17.016;2023-02-19T06:40:15;99855.15;;;10.22;48.72
56176;BME280;63065;51.082;17.016;2023-02-19T06:42:40;99856.82;;;10.12;48.46
56176;BME280;63065;51.082;17.016;2023-02-19T06:45:07;99857.29;;;9.97;49.00
56176;BME280;63065;51.082;17.016;2023-02-19T06:47:31;99857.41;;;10.60;48.27
56176;BME280;63065;51.082;17.016;2023-02-19T06:49:57;99855.81;;;10.50;47.89
56176;BME280;63065;51.082;17.016;2023-02-19T06:52:23;99851.60;;;9.87;48.15
56176;BME280;63065;51.082;17.016;2023-02-19T06:54:48;99855.66;;;10.31;49.20
56176;BME280;63065;51.082;17.016;2023-02-19T06:57:13;99859.25;;;10.50;48.49
56176;BME280;63065;51.082;17.016;2023-02-19T06:59:39;99857.79;;;10.17;48.14
56176;BME280;63065;51.082;17.016;2023-02-19T07:02:05;99862.08;;;10.37;50.54
56176;BME280;63065;51.082;17.016;2023-02-19T07:04:30;99868.07;;;10.25;50.51
56176;BME280;63065;51.082;17.016;2023-02-19T07:06:55;99875.34;;;10.29;49.13
56176;BME280;63065;51.082;17.016;2023-02-19T07:09:21;99881.51;;;10.35;48.41
56176;BME280;63065;51.082;17.016;2023-02-19T07:11:47;99888.40;;;10.29;48.88
56176;BME280;63065;51.082;17.016;2023-02-19T07:14:15;99894.88;;;10.50;47.94
56176;BME280;63065;51.082;17.016;2023-02-19T07:16:38;99900.35;;;10.12;47.68
56176;BME280;63065;51.082;17.016;2023-02-19T07:19:03;99910.22;;;9.63;47.35
56176;BME280;63065;51.082;17.016;2023-02-19T07:21:29;99915.17;;;9.55;46.97
56176;BME280;63065;51.082;17.016;2023-02-19T07:23:55;99921.20;;;9.29;48.65
56176;BME280;63065;51.082;17.016;2023-02-19T07:26:21;99926.73;;;9.58;48.32
56176;BME280;63065;51.082;17.016;2023-02-19T07:28:48;99925.04;;;9.15;48.29
56176;BME280;63065;51.082;17.016;2023-02-19T07:31:13;99929.77;;;9.78;47.55
56176;BME280;63065;51.082;17.016;2023-02-19T07:33:37;99931.64;;;9.23;47.62
56176;BME280;63065;51.082;17.016;2023-02-19T07:36:06;99936.50;;;9.27;48.26
56176;BME280;63065;51.082;17.016;2023-02-19T07:38:28;99935.87;;;8.96;48.54
56176;BME280;63065;51.082;17.016;2023-02-19T07:40:54;99935.08;;;9.16;48.95
56176;BME280;63065;51.082;17.016;2023-02-19T07:43:18;99940.63;;;9.30;48.06
56176;BME280;63065;51.082;17.016;2023-02-19T07:45:43;99939.62;;;9.55;48.12
56176;BME280;63065;51.082;17.016;2023-02-19T07:48:09;99948.80;;;8.96;48.22
56176;BME280;63065;51.082;17.016;2023-02-19T07:50:33;99958.95;;;8.96;49.06
56176;BME280;63065;51.082;17.016;2023-02-19T07:52:59;99967.09;;;9.07;48.20
56176;BME280;63065;51.082;17.016;2023-02-19T07:55:24;99970.24;;;8.87;48.13
56176;BME280;63065;51.082;17.016;2023-02-19T07:57:49;99974.13;;;8.11;49.41
56176;BME280;63065;51.082;17.016;2023-02-19T08:00:15;99978.07;;;8.29;49.18
56176;BME280;63065;51.082;17.016;2023-02-19T08:02:39;99984.38;;;7.99;49.42
56176;BME280;63065;51.082;17.016;2023-02-19T08:05:06;99987.48;;;8.50;49.71
56176;BME280;63065;51.082;17.016;2023-02-19T08:07:31;99990.13;;;8.20;48.79
56176;BME280;63065;51.082;17.016;2023-02-19T08:09:55;99991.67;;;7.83;48.85
56176;BME280;63065;51.082;17.016;2023-02-19T08:12:20;99999.27;;;8.35;48.62
56176;BME280;63065;51.082;17.016;2023-02-19T08:14:45;99998.08;;;7.96;48.03
56176;BME280;63065;51.082;17.016;2023-02-19T08:17:10;100001.07;;;8.20;48.15
56176;BME280;63065;51.082;17.016;2023-02-19T08:19:35;100008.13;;;7.95;48.58
56176;BME280;63065;51.082;17.016;2023-02-19T08:22:00;100015.20;;;7.87;48.08
56176;BME280;63065;51.082;17.016;2023-02-19T08:24:25;100024.61;;;7.74;47.80
56176;BME280;63065;51.082;17.016;2023-02-19T08:26:50;100028.53;;;7.60;48.26
56176;BME280;63065;51.082;17.016;2023-02-19T08:29:15;100036.08;;;6.69;49.14
56176;BME280;63065;51.082;17.016;2023-02-19T08:31:40;100031.88;;;6.69;49.35
56176;BME280;63065;51.082;17.016;2023-02-19T08:34:05;100040.59;;;7.49;49.40
56176;BME280;63065;51.082;17.016;2023-02-19T08:36:30;100043.87;;;7.82;48.14
56176;BME280;63065;51.082;17.016;2023-02-19T08:38:55;100046.61;;;7.55;47.88
56176;BME280;63065;51.082;17.016;2023-02-19T08:41:21;100050.99;;;7.24;48.96
56176;BME280;63065;51.082;17.016;2023-02-19T08:43:45;100046.64;;;7.19;49.35
56176;BME280;63065;51.082;17.016;2023-02-19T08:46:11;100052.08;;;7.95;48.84
56176;BME280;63065;51.082;17.016;2023-02-19T08:48:35;100052.94;;;8.04;46.84
56176;BME280;63065;51.082;17.016;2023-02-19T08:51:02;100056.65;;;8.01;47.91
56176;BME280;63065;51.082;17.016;2023-02-19T08:53:25;100061.98;;;8.18;48.55
56176;BME280;63065;51.082;17.016;2023-02-19T08:55:51;100071.02;;;8.17;46.88
56176;BME280;63065;51.082;17.016;2023-02-19T08:58:15;100068.57;;;7.82;48.06
56176;BME280;63065;51.082;17.016;2023-02-19T09:00:40;100068.19;;;8.26;47.06
56176;BME280;63065;51.082;17.016;2023-02-19T09:03:06;100071.12;;;8.13;47.21
56176;BME280;63065;51.082;17.016;2023-02-19T09:05:31;100079.71;;;8.32;47.94
56176;BME280;63065;51.082;17.016;2023-02-19T09:07:56;100087.50;;;8.06;46.73
56176;BME280;63065;51.082;17.016;2023-02-19T09:10:22;100091.59;;;8.58;46.78
56176;BME280;63065;51.082;17.016;2023-02-19T09:12:47;100097.68;;;8.05;47.33
56176;BME280;63065;51.082;17.016;2023-02-19T09:15:12;100095.72;;;8.41;46.94
56176;BME280;63065;51.082;17.016;2023-02-19T09:17:37;100105.94;;;8.25;47.83
56176;BME280;63065;51.082;17.016;2023-02-19T09:20:02;100109.86;;;8.38;45.94
56176;BME280;63065;51.082;17.016;2023-02-19T09:22:27;100110.42;;;8.14;46.99
56176;BME280;63065;51.082;17.016;2023-02-19T09:24:52;100115.59;;;8.52;46.62
56176;BME280;63065;51.082;17.016;2023-02-19T09:27:22;100119.31;;;8.45;46.29
56176;BME280;63065;51.082;17.016;2023-02-19T09:29:42;100120.18;;;7.99;47.35
56176;BME280;63065;51.082;17.016;2023-02-19T09:32:07;100125.22;;;8.69;46.52
56176;BME280;63065;51.082;17.016;2023-02-19T09:34:32;100129.91;;;8.35;46.82
56176;BME280;63065;51.082;17.016;2023-02-19T09:36:58;100138.36;;;8.06;46.62
56176;BME280;63065;51.082;17.016;2023-02-19T09:39:23;100143.20;;;7.86;46.49
56176;BME280;63065;51.082;17.016;2023-02-19T09:41:49;100146.49;;;7.77;48.28
56176;BME280;63065;51.082;17.016;2023-02-19T09:44:15;100149.62;;;7.63;48.52
56176;BME280;63065;51.082;17.016;2023-02-19T09:46:41;100149.84;;;7.77;48.29
56176;BME280;63065;51.082;17.016;2023-02-19T09:49:06;100151.27;;;8.04;47.67
56176;BME280;63065;51.082;17.016;2023-02-19T09:51:29;100146.07;;;8.45;46.52
56176;BME280;63065;51.082;17.016;2023-02-19T09:53:54;100148.20;;;7.72;47.95
56176;BME280;63065;51.082;17.016;2023-02-19T09:56:18;100152.89;;;7.81;49.14
56176;BME280;63065;51.082;17.016;2023-02-19T09:58:47;100153.65;;;8.03;47.61
56176;BME280;63065;51.082;17.016;2023-02-19T10:01:10;100159.36;;;8.22;46.88
56176;BME280;63065;51.082;17.016;2023-02-19T10:03:36;100169.76;;;7.54;47.29
56176;BME280;63065;51.082;17.016;2023-02-19T10:06:01;100171.04;;;7.52;48.48
56176;BME280;63065;51.082;17.016;2023-02-19T10:08:24;100174.19;;;7.63;47.79
56176;BME280;63065;51.082;17.016;2023-02-19T10:10:50;100182.97;;;8.20;49.14
56176;BME280;63065;51.082;17.016;2023-02-19T10:13:19;100190.00;;;8.35;47.87
56176;BME280;63065;51.082;17.016;2023-02-19T10:15:44;100189.91;;;8.17;46.61
56176;BME280;63065;51.082;17.016;2023-02-19T10:18:05;100196.21;;;7.74;48.02
56176;BME280;63065;51.082;17.016;2023-02-19T10:20:29;100200.65;;;8.04;48.38
56176;BME280;63065;51.082;17.016;2023-02-19T10:22:59;100207.68;;;7.20;48.42
56176;BME280;63065;51.082;17.016;2023-02-19T10:25:19;100209.39;;;7.34;46.17
56176;BME280;63065;51.082;17.016;2023-02-19T10:27:44;100215.93;;;7.01;48.91
56176;BME280;63065;51.082;17.016;2023-02-19T10:30:18;100217.57;;;7.21;49.94
56176;BME280;63065;51.082;17.016;2023-02-19T10:32:35;100220.17;;;7.94;48.70
56176;BME280;63065;51.082;17.016;2023-02-19T10:35:07;100227.50;;;8.15;47.14
56176;BME280;63065;51.082;17.016;2023-02-19T10:37:25;100232.14;;;8.35;46.80
56176;BME280;63065;51.082;17.016;2023-02-19T10:39:50;100234.59;;;8.52;46.34
56176;BME280;63065;51.082;17.016;2023-02-19T10:42:19;100239.05;;;8.51;45.66
56176;BME280;63065;51.082;17.016;2023-02-19T10:44:43;100250.57;;;7.70;46.67
56176;BME280;63065;51.082;17.016;2023-02-19T10:47:05;100239.12;;;7.62;47.35
56176;BME280;63065;51.082;17.016;2023-02-19T10:49:32;100246.79;;;7.42;47.95
56176;BME280;63065;51.082;17.016;2023-02-19T10:51:58;100247.69;;;7.76;48.82
56176;BME280;63065;51.082;17.016;2023-02-19T10:54:25;100248.67;;;8.24;47.82
56176;BME280;63065;51.082;17.016;2023-02-19T10:56:46;100247.28;;;8.43;46.04
56176;BME280;63065;51.082;17.016;2023-02-19T10:59:20;100250.94;;;8.88;47.04
56176;BME280;63065;51.082;17.016;2023-02-19T11:01:38;100252.28;;;8.70;46.85
56176;BME280;63065;51.082;17.016;2023-02-19T11:06:27;100260.05;;;8.44;47.01
56176;BME280;63065;51.082;17.016;2023-02-19T11:08:54;100265.32;;;7.62;45.62
56176;BME280;63065;51.082;17.016;2023-02-19T11:11:22;100270.18;;;7.71;47.18
56176;BME280;63065;51.082;17.016;2023-02-19T11:13:42;100278.19;;;7.46;47.05
56176;BME280;63065;51.082;17.016;2023-02-19T11:16:07;100278.03;;;6.99;48.58
56176;BME280;63065;51.082;17.016;2023-02-19T11:18:32;100283.80;;;6.82;46.97
56176;BME280;63065;51.082;17.016;2023-02-19T11:20:59;100274.90;;;7.54;47.77
56176;BME280;63065;51.082;17.016;2023-02-19T11:23:25;100279.04;;;7.87;48.31
56176;BME280;63065;51.082;17.016;2023-02-19T11:25:49;100276.86;;;7.31;46.53
56176;BME280;63065;51.082;17.016;2023-02-19T11:28:20;100286.33;;;8.09;46.70
56176;BME280;63065;51.082;17.016;2023-02-19T11:30:40;100284.08;;;7.51;47.00
56176;BME280;63065;51.082;17.016;2023-02-19T11:35:29;100282.88;;;8.33;44.77
56176;BME280;63065;51.082;17.016;2023-02-19T11:37:55;100284.68;;;7.84;44.94
56176;BME280;63065;51.082;17.016;2023-02-19T11:40:20;100290.08;;;7.30;45.60
56176;BME280;63065;51.082;17.016;2023-02-19T11:42:46;100292.43;;;7.47;44.01
56176;BME280;63065;51.082;17.016;2023-02-19T11:45:22;100292.46;;;6.91;45.96
56176;BME280;63065;51.082;17.016;2023-02-19T11:47:44;100288.03;;;6.93;46.39
56176;BME280;63065;51.082;17.016;2023-02-19T11:50:04;100294.45;;;6.91;46.31
56176;BME280;63065;51.082;17.016;2023-02-19T11:52:30;100292.32;;;6.16;47.62
56176;BME280;63065;51.082;17.016;2023-02-19T11:54:52;100299.46;;;6.12;48.71
56176;BME280;63065;51.082;17.016;2023-02-19T11:57:23;100290.91;;;6.77;47.79
56176;BME280;63065;51.082;17.016;2023-02-19T11:59:44;100291.10;;;6.97;46.69
56176;BME280;63065;51.082;17.016;2023-02-19T12:02:17;100290.72;;;6.69;46.62
56176;BME280;63065;51.082;17.016;2023-02-19T12:07:01;100292.57;;;7.03;45.92
56176;BME280;63065;51.082;17.016;2023-02-19T12:09:32;100301.83;;;6.83;46.64
56176;BME280;63065;51.082;17.016;2023-02-19T12:11:53;100307.20;;;7.03;44.84
56176;BME280;63065;51.082;17.016;2023-02-19T12:14:24;100310.98;;;6.28;47.41
56176;BME280;63065;51.082;17.016;2023-02-19T12:16:39;100324.29;;;6.76;47.90
56176;BME280;63065;51.082;17.016;2023-02-19T12:19:09;100332.27;;;6.24;47.86
56176;BME280;63065;51.082;17.016;2023-02-19T12:21:36;100328.75;;;6.22;47.81
56176;BME280;63065;51.082;17.016;2023-02-19T12:24:06;100326.66;;;6.96;46.39
56176;BME280;63065;51.082;17.016;2023-02-19T12:26:21;100333.37;;;6.95;48.43
56176;BME280;63065;51.082;17.016;2023-02-19T12:28:58;100340.02;;;7.65;46.01
56176;BME280;63065;51.082;17.016;2023-02-19T12:31:16;100331.61;;;8.44;46.74
56176;BME280;63065;51.082;17.016;2023-02-19T12:33:48;100340.15;;;8.04;42.80
56176;BME280;63065;51.082;17.016;2023-02-19T12:36:03;100342.32;;;7.30;43.60
56176;BME280;63065;51.082;17.016;2023-02-19T12:38:28;100336.25;;;8.08;44.07
56176;BME280;63065;51.082;17.016;2023-02-19T12:41:01;100330.80;;;8.37;44.49
56176;BME280;63065;51.082;17.016;2023-02-19T12:43:16;100324.61;;;8.84;42.42
56176;BME280;63065;51.082;17.016;2023-02-19T12:45:41;100336.68;;;8.61;43.49
56176;BME280;63065;51.082;17.016;2023-02-19T12:48:07;100344.26;;;9.19;42.35
56176;BME280;63065;51.082;17.016;2023-02-19T12:50:29;100368.44;;;8.36;41.69